SHT18K EGLL-EGPD
Flight info
| Callsign | SHT18K |
|---|---|
| Flight time | N/A |
| Altitude | 36000 |
| Route | UMLAT T418 WELIN T420 AKUPA UY250 KEFTE DCT MADAD DCT NEXUS/N0394F240 P18 EPCAN |
| Aircraft | A321/M-SDE3FGHIRWY/LB1 |
Departure
| Time | 2026-05-03 20:22 |
|---|---|
| Airport | London Heathrow Airport (EGLL) |
Arrival
| Time | N/A |
|---|---|
| Airport | Aberdeen International Airport (EGPD) |
| Time | Latitude | Longitude | Altitude | Speed | Heading |
|---|---|---|---|---|---|
| 2026-05-03 20:15 | 51.46656 | -0.47508 | 89 ft | 15 kts | 89° |
| 2026-05-03 20:15 | 51.46656 | -0.47329 | 86 ft | 17 kts | 90° |
| 2026-05-03 20:15 | 51.46656 | -0.47132 | 86 ft | 18 kts | 89° |
| 2026-05-03 20:15 | 51.46658 | -0.46919 | 90 ft | 20 kts | 90° |
| 2026-05-03 20:16 | 51.46658 | -0.46691 | 90 ft | 20 kts | 91° |
| 2026-05-03 20:16 | 51.46659 | -0.46484 | 88 ft | 17 kts | 89° |
| 2026-05-03 20:16 | 51.46660 | -0.46301 | 90 ft | 15 kts | 89° |
| 2026-05-03 20:16 | 51.46660 | -0.46138 | 88 ft | 14 kts | 90° |
| 2026-05-03 20:17 | 51.46660 | -0.45962 | 88 ft | 18 kts | 90° |
| 2026-05-03 20:17 | 51.46662 | -0.45744 | 86 ft | 21 kts | 90° |
| 2026-05-03 20:17 | 51.46662 | -0.45513 | 86 ft | 20 kts | 89° |
| 2026-05-03 20:17 | 51.46664 | -0.45296 | 86 ft | 19 kts | 89° |
| 2026-05-03 20:18 | 51.46664 | -0.45090 | 86 ft | 18 kts | 89° |
| 2026-05-03 20:18 | 51.46664 | -0.44888 | 87 ft | 18 kts | 90° |
| 2026-05-03 20:18 | 51.46665 | -0.44685 | 86 ft | 18 kts | 89° |
| 2026-05-03 20:18 | 51.46665 | -0.44477 | 86 ft | 19 kts | 90° |
| 2026-05-03 20:19 | 51.46666 | -0.44285 | 86 ft | 13 kts | 89° |
| 2026-05-03 20:19 | 51.46666 | -0.44193 | 86 ft | 0 kts | 90° |
| 2026-05-03 20:20 | 51.46666 | -0.44192 | 86 ft | 1 kts | 90° |
| 2026-05-03 20:20 | 51.46666 | -0.44171 | 86 ft | 3 kts | 90° |
| 2026-05-03 20:20 | 51.46666 | -0.44114 | 86 ft | 7 kts | 96° |
| 2026-05-03 20:20 | 51.46638 | -0.44058 | 88 ft | 7 kts | 160° |
| 2026-05-03 20:21 | 51.46572 | -0.44053 | 86 ft | 11 kts | 180° |
| 2026-05-03 20:21 | 51.46506 | -0.44060 | 87 ft | 6 kts | 199° |
| 2026-05-03 20:21 | 51.46498 | -0.44076 | 86 ft | 5 kts | 243° |
| 2026-05-03 20:21 | 51.46492 | -0.44179 | 86 ft | 17 kts | 271° |
| 2026-05-03 20:22 | 51.46490 | -0.44754 | 89 ft | 87 kts | 270° |
| 2026-05-03 20:22 | 51.46487 | -0.46076 | 89 ft | 147 kts | 270° |
| 2026-05-03 20:22 | 51.46481 | -0.47951 | 228 ft | 179 kts | 270° |
| 2026-05-03 20:22 | 51.46483 | -0.49912 | 974 ft | 176 kts | 273° |
| 2026-05-03 20:23 | 51.46784 | -0.51820 | 1524 ft | 187 kts | 292° |
| 2026-05-03 20:23 | 51.47403 | -0.53803 | 1778 ft | 208 kts | 295° |
| 2026-05-03 20:23 | 51.48080 | -0.56022 | 1967 ft | 237 kts | 296° |
| 2026-05-03 20:23 | 51.48874 | -0.58506 | 2367 ft | 254 kts | 296° |
| 2026-05-03 20:24 | 51.49690 | -0.61031 | 3168 ft | 256 kts | 297° |
| 2026-05-03 20:24 | 51.50528 | -0.63611 | 3807 ft | 264 kts | 297° |
| 2026-05-03 20:24 | 51.51628 | -0.65997 | 4508 ft | 270 kts | 319° |
| 2026-05-03 20:24 | 51.53246 | -0.67541 | 5229 ft | 274 kts | 340° |
| 2026-05-03 20:25 | 51.55076 | -0.68432 | 5969 ft | 276 kts | 337° |
| 2026-05-03 20:25 | 51.56665 | -0.70144 | 6608 ft | 278 kts | 315° |
| 2026-05-03 20:25 | 51.58005 | -0.72388 | 7305 ft | 280 kts | 311° |
| 2026-05-03 20:25 | 51.59334 | -0.74729 | 7767 ft | 284 kts | 311° |
| 2026-05-03 20:26 | 51.60645 | -0.77043 | 7990 ft | 285 kts | 311° |
| 2026-05-03 20:26 | 51.61985 | -0.79402 | 8736 ft | 286 kts | 311° |
| 2026-05-03 20:26 | 51.63338 | -0.81766 | 9456 ft | 288 kts | 311° |
| 2026-05-03 20:26 | 51.64715 | -0.84151 | 10066 ft | 295 kts | 311° |
| 2026-05-03 20:27 | 51.66161 | -0.86648 | 10217 ft | 317 kts | 311° |
| 2026-05-03 20:27 | 51.67714 | -0.89338 | 10352 ft | 337 kts | 311° |
| 2026-05-03 20:27 | 51.69332 | -0.92146 | 10774 ft | 345 kts | 311° |
| 2026-05-03 20:27 | 51.70975 | -0.94992 | 11336 ft | 349 kts | 311° |
| 2026-05-03 20:28 | 51.72639 | -0.97865 | 11929 ft | 352 kts | 311° |
| 2026-05-03 20:28 | 51.74322 | -1.00766 | 12504 ft | 356 kts | 311° |
| 2026-05-03 20:28 | 51.76030 | -1.03700 | 13090 ft | 359 kts | 311° |
| 2026-05-03 20:28 | 51.77751 | -1.06646 | 13682 ft | 363 kts | 311° |
| 2026-05-03 20:29 | 51.79496 | -1.09626 | 14234 ft | 366 kts | 311° |
| 2026-05-03 20:29 | 51.81248 | -1.12620 | 14780 ft | 368 kts | 311° |
| 2026-05-03 20:29 | 51.83009 | -1.15646 | 15325 ft | 370 kts | 311° |
| 2026-05-03 20:29 | 51.84781 | -1.18687 | 15884 ft | 373 kts | 311° |
| 2026-05-03 20:30 | 51.86567 | -1.21750 | 16415 ft | 375 kts | 311° |
| 2026-05-03 20:30 | 51.88366 | -1.24829 | 16941 ft | 378 kts | 311° |
| 2026-05-03 20:30 | 51.90162 | -1.27899 | 17465 ft | 381 kts | 311° |
| 2026-05-03 20:30 | 51.91991 | -1.31024 | 17992 ft | 384 kts | 311° |
| 2026-05-03 20:31 | 51.93837 | -1.34174 | 18467 ft | 387 kts | 311° |
| 2026-05-03 20:31 | 51.95952 | -1.36900 | 18881 ft | 394 kts | 329° |
| 2026-05-03 20:31 | 51.98552 | -1.38404 | 19287 ft | 402 kts | 349° |
| 2026-05-03 20:31 | 52.01360 | -1.38471 | 19687 ft | 408 kts | 7° |
| 2026-05-03 20:32 | 52.04170 | -1.37683 | 20098 ft | 411 kts | 9° |
| 2026-05-03 20:32 | 52.06998 | -1.36927 | 20530 ft | 412 kts | 2° |
| 2026-05-03 20:32 | 52.09861 | -1.37134 | 20931 ft | 413 kts | 352° |
| 2026-05-03 20:32 | 52.12730 | -1.37652 | 21343 ft | 415 kts | 352° |
| 2026-05-03 20:33 | 52.15611 | -1.38189 | 21739 ft | 418 kts | 351° |
| 2026-05-03 20:33 | 52.18509 | -1.38738 | 22146 ft | 421 kts | 351° |
| 2026-05-03 20:33 | 52.21429 | -1.39294 | 22544 ft | 423 kts | 351° |
| 2026-05-03 20:33 | 52.24361 | -1.39851 | 22939 ft | 426 kts | 351° |
| 2026-05-03 20:34 | 52.27317 | -1.40411 | 23329 ft | 429 kts | 351° |
| 2026-05-03 20:34 | 52.30285 | -1.40971 | 23743 ft | 429 kts | 352° |
| 2026-05-03 20:34 | 52.33258 | -1.41530 | 24112 ft | 431 kts | 352° |
| 2026-05-03 20:34 | 52.36206 | -1.42078 | 24439 ft | 433 kts | 352° |
| 2026-05-03 20:35 | 52.39207 | -1.42635 | 24758 ft | 436 kts | 352° |
| 2026-05-03 20:35 | 52.42239 | -1.43202 | 25088 ft | 439 kts | 352° |
| 2026-05-03 20:35 | 52.45277 | -1.43774 | 25368 ft | 441 kts | 352° |
| 2026-05-03 20:35 | 52.48350 | -1.44354 | 25681 ft | 444 kts | 352° |
| 2026-05-03 20:36 | 52.51429 | -1.44931 | 25980 ft | 446 kts | 352° |
| 2026-05-03 20:36 | 52.54521 | -1.45508 | 26325 ft | 448 kts | 352° |
| 2026-05-03 20:36 | 52.57629 | -1.46087 | 26666 ft | 450 kts | 352° |
| 2026-05-03 20:36 | 52.60711 | -1.46664 | 26959 ft | 452 kts | 352° |
| 2026-05-03 20:37 | 52.63848 | -1.47255 | 27255 ft | 455 kts | 351° |
| 2026-05-03 20:37 | 52.67008 | -1.47856 | 27547 ft | 458 kts | 351° |